createdAt,value
2019-01-28T12:19:14.318Z,7.03
2019-01-28T12:27:41.100Z,8.87
2019-01-28T12:33:43.022Z,8.57
2019-01-28T12:36:11.657Z,10.00
2019-01-28T12:38:40.251Z,6.53
2019-01-28T12:41:08.827Z,9.67
2019-01-28T12:43:37.576Z,9.17
2019-01-28T12:46:06.401Z,9.57
2019-01-28T12:48:35.827Z,6.40
2019-01-28T12:51:22.331Z,8.53
2019-01-28T12:59:35.158Z,10.90
2019-01-28T13:02:03.936Z,9.10
2019-01-28T13:04:32.631Z,8.93
2019-01-28T13:07:04.248Z,8.67
2019-01-28T13:09:37.040Z,9.17
2019-01-28T13:18:11.699Z,6.70
2019-01-28T13:30:03.509Z,7.30
2019-01-28T13:32:32.319Z,6.27
2019-01-28T13:35:01.013Z,5.20
2019-01-28T13:37:29.652Z,8.87
2019-01-28T13:39:58.219Z,6.07
2019-01-28T13:42:26.834Z,6.40
2019-01-28T13:44:55.529Z,5.67
2019-01-28T13:47:24.144Z,7.43
2019-01-28T13:49:52.837Z,6.53
2019-01-28T13:52:21.501Z,6.57
2019-01-28T13:54:50.146Z,5.87
2019-01-28T13:57:19.893Z,5.10
2019-01-28T14:02:50.010Z,8.67
2019-01-28T14:05:18.845Z,6.33
2019-01-28T14:07:47.615Z,5.83
2019-01-28T14:23:27.888Z,5.47
2019-01-28T14:25:56.454Z,7.13
2019-01-28T14:28:25.184Z,8.77
2019-01-28T14:30:53.903Z,6.63
2019-01-28T14:36:16.867Z,4.97
2019-01-28T14:44:45.718Z,5.83
2019-01-28T14:47:14.389Z,6.83
2019-01-28T14:49:42.962Z,8.30
2019-01-28T14:52:11.639Z,8.63
2019-01-28T14:54:46.291Z,7.37
2019-01-28T14:57:14.915Z,6.77
2019-01-28T14:59:43.511Z,7.90
2019-01-28T15:02:12.267Z,6.13
2019-01-28T15:04:40.824Z,6.97
2019-01-28T15:07:09.491Z,7.33
2019-01-28T15:09:38.196Z,7.87
2019-01-28T15:12:06.954Z,7.03
2019-01-28T15:14:35.542Z,5.67
2019-01-28T15:17:04.306Z,7.23
2019-01-28T15:19:32.974Z,6.43
2019-01-28T15:22:01.676Z,5.07
2019-01-28T15:30:30.409Z,6.10
2019-01-28T15:32:59.166Z,7.80
2019-01-28T15:35:27.865Z,6.03
2019-01-28T15:37:56.598Z,9.17
2019-01-28T15:43:23.199Z,4.30
2019-01-28T15:45:51.856Z,4.73
2019-01-28T15:48:20.491Z,5.33
2019-01-28T15:50:49.153Z,6.00
2019-01-28T15:53:17.907Z,6.80
2019-01-28T15:55:46.631Z,6.73
2019-01-28T15:58:15.298Z,8.43
2019-01-28T16:03:39.750Z,6.43
2019-01-28T16:06:08.481Z,8.83
2019-01-28T16:08:37.096Z,5.83
2019-01-28T16:11:05.824Z,6.70
2019-01-28T16:13:34.488Z,6.07
2019-01-28T16:18:58.911Z,6.23
2019-01-28T16:21:27.545Z,7.10
2019-01-28T16:23:56.216Z,7.40
2019-01-28T16:26:24.937Z,9.10
2019-01-28T16:28:53.604Z,7.97
2019-01-28T16:31:22.340Z,7.23
2019-01-28T16:33:51.015Z,7.13
2019-01-28T16:36:19.665Z,8.93
2019-01-28T16:38:48.373Z,8.87
2019-01-28T16:41:16.935Z,9.53
2019-01-28T16:46:47.675Z,10.70
2019-01-28T16:49:16.257Z,8.83
2019-01-28T16:51:44.831Z,10.63
2019-01-28T16:54:13.472Z,7.03
2019-01-28T16:59:37.906Z,10.60
2019-01-28T17:02:06.609Z,16.10
2019-01-28T17:04:35.304Z,10.93
2019-01-28T17:07:23.314Z,9.07
2019-01-28T17:09:51.955Z,14.40
2019-01-28T17:12:20.518Z,9.43
2019-01-28T17:14:49.077Z,13.87
2019-01-28T17:17:17.635Z,7.80
2019-01-28T17:19:46.209Z,11.33
2019-01-28T17:28:14.982Z,14.10
2019-01-28T17:30:45.666Z,16.90
2019-01-28T17:33:14.414Z,11.90
2019-01-28T17:35:43.187Z,13.70
2019-01-28T17:38:11.922Z,16.33
2019-01-28T17:52:34.604Z,16.37
2019-01-28T19:33:12.878Z,11.03
2019-01-28T19:35:43.457Z,9.60
2019-01-28T19:38:17.856Z,9.60
2019-01-28T19:41:01.319Z,10.73
2019-01-28T19:43:42.659Z,10.13
2019-01-28T19:46:11.500Z,9.80
2019-01-28T19:48:40.250Z,11.43
2019-01-28T19:54:07.337Z,10.63
2019-01-28T19:56:37.228Z,10.83
2019-01-28T19:59:10.704Z,12.87
2019-01-28T20:01:39.565Z,19.77
2019-01-28T20:04:08.359Z,13.23
2019-01-28T20:06:37.136Z,13.33
2019-01-28T20:09:08.715Z,15.10
2019-01-28T20:21:34.395Z,12.87
2019-01-28T20:36:45.383Z,12.10
2019-01-28T20:39:31.974Z,15.60
2019-01-28T20:50:09.153Z,11.43
2019-01-28T20:58:59.867Z,12.63
2019-01-28T21:01:44.086Z,13.40
2019-01-28T21:07:38.751Z,10.97
2019-01-28T21:10:10.377Z,10.97
2019-01-28T21:15:46.963Z,11.87
2019-01-28T21:18:17.145Z,9.00
2019-01-28T21:20:45.819Z,12.10
2019-01-28T21:36:27.207Z,9.67
2019-01-28T21:39:00.027Z,13.70
2019-01-28T21:41:30.995Z,13.37
2019-01-28T21:44:01.062Z,14.10
2019-01-28T21:46:31.005Z,15.37
2019-01-28T21:49:00.414Z,10.47
2019-01-28T21:51:29.144Z,9.97
2019-01-28T21:53:57.746Z,13.30
2019-01-28T21:56:26.430Z,10.97
2019-01-28T21:58:55.010Z,9.57
2019-01-28T22:08:07.535Z,9.70
2019-01-28T22:10:36.379Z,10.00
2019-01-28T22:13:08.590Z,8.80
2019-01-28T22:15:37.456Z,13.80
2019-01-28T22:18:07.600Z,10.60
2019-01-28T22:20:36.282Z,10.90
2019-01-28T22:23:07.130Z,8.50
2019-01-28T22:25:36.057Z,10.00
2019-01-28T22:28:04.846Z,8.90
2019-01-28T22:40:33.435Z,10.63
2019-01-28T22:43:03.077Z,9.73
2019-01-28T22:45:34.339Z,8.67
2019-01-28T22:48:05.702Z,7.97
2019-01-28T22:50:36.147Z,9.00
2019-01-28T22:53:05.343Z,8.20
2019-01-28T23:04:34.251Z,9.87
2019-01-28T23:22:17.762Z,13.30
